Time;durP1;ratioP1;P1;durP2;ratioP2;P2;SDS_P1;SDS_P2;PMS_P1;PMS_P2;Temp;Humidity;BMP_temperature;BMP_pressure;BME280_temperature;BME280_humidity;BME280_pressure;Samples;Min_cycle;Max_cycle;Signal;HPM_P1;HPM_P2
2023/06/13 00:00:54;;;;;;;5.88;3.67;;;;;;;20.25;42.51;93302.59;4991663;28;20084;-88
2023/06/13 00:03:20;;;;;;;8.32;4.85;;;;;;;20.23;42.61;93307.13;5007647;28;20520;-90
2023/06/13 00:05:46;;;;;;;7.07;4.18;;;;;;;20.22;42.65;93305.66;5007765;28;20439;-88
2023/06/13 00:08:17;;;;;;;8.68;5.03;;;;;;;20.22;42.66;93306.38;5006925;28;20056;-90
2023/06/13 00:10:45;;;;;;;9.63;4.22;;;;;;;20.20;42.80;93295.94;5011146;28;20465;-90
2023/06/13 00:13:11;;;;;;;6.45;4.18;;;;;;;20.20;42.67;93290.44;4993351;28;20040;-90
2023/06/13 00:15:36;;;;;;;9.00;3.95;;;;;;;20.20;42.72;93298.69;5026804;28;20042;-89
2023/06/13 00:18:03;;;;;;;8.40;4.32;;;;;;;20.21;42.61;93293.94;5027319;28;20049;-90
2023/06/13 00:20:29;;;;;;;12.68;4.53;;;;;;;20.23;42.56;93293.41;5009431;28;20518;-89
2023/06/13 00:22:56;;;;;;;7.10;3.53;;;;;;;20.21;42.48;93293.94;5024018;28;20116;-89
2023/06/13 00:25:21;;;;;;;6.63;4.15;;;;;;;20.20;42.63;93282.22;5006920;28;20397;-90
2023/06/13 00:27:46;;;;;;;7.93;3.67;;;;;;;20.18;42.79;93287.47;5026617;28;20084;-88
2023/06/13 00:30:12;;;;;;;5.18;3.63;;;;;;;20.18;42.87;93282.00;5025765;28;20052;-88
2023/06/13 00:32:37;;;;;;;9.35;3.70;;;;;;;20.21;42.82;93280.22;4990455;28;20069;-89
2023/06/13 00:35:03;;;;;;;7.10;3.90;;;;;;;20.19;42.96;93280.00;5020384;28;20419;-89
2023/06/13 00:37:29;;;;;;;6.45;3.83;;;;;;;20.18;42.71;93279.25;5026712;28;20041;-91
2023/06/13 00:39:54;;;;;;;7.32;3.78;;;;;;;20.18;42.86;93281.25;5009743;28;20520;-90
2023/06/13 00:42:20;;;;;;;9.57;4.00;;;;;;;20.18;42.83;93276.50;5009628;28;20451;-89
2023/06/13 00:44:46;;;;;;;7.78;4.15;;;;;;;20.19;42.86;93267.00;5017998;28;20049;-89
2023/06/13 00:47:13;;;;;;;7.70;4.40;;;;;;;20.19;42.81;93269.00;5008883;28;20111;-89
2023/06/13 00:49:41;;;;;;;8.00;4.22;;;;;;;20.18;42.70;93259.28;4999630;28;20053;-88
2023/06/13 00:52:08;;;;;;;7.60;3.45;;;;;;;20.19;42.23;93269.00;5021996;28;20561;-89
2023/06/13 00:54:36;;;;;;;6.25;3.50;;;;;;;20.17;42.76;93258.56;5022379;28;20037;-91
2023/06/13 00:57:04;;;;;;;9.38;4.00;;;;;;;20.16;42.83;93254.34;5026225;28;20049;-89
2023/06/13 00:59:29;;;;;;;6.65;3.33;;;;;;;20.17;42.71;93255.81;5030284;28;20038;-90
2023/06/13 01:01:55;;;;;;;6.00;3.70;;;;;;;20.16;42.72;93246.09;5012679;28;20478;-89
2023/06/13 01:04:21;;;;;;;9.15;4.32;;;;;;;20.16;42.70;93237.13;5018811;28;20040;-88
2023/06/13 01:06:46;;;;;;;6.18;3.17;;;;;;;20.14;42.69;93245.16;5062578;28;20041;-88
2023/06/13 01:09:12;;;;;;;5.45;3.17;;;;;;;20.17;42.56;93225.63;5015903;28;20452;-89
2023/06/13 01:12:13;;;;;;;7.40;3.35;;;;;;;20.15;42.56;93228.16;5026492;28;20033;-89
2023/06/13 01:14:41;;;;;;;;;;;;;;;20.18;42.51;93229.84;5027329;28;20041;-90
2023/06/13 01:17:15;;;;;;;5.53;3.28;;;;;;;20.18;42.68;93226.38;5030920;28;20370;-90
2023/06/13 01:19:43;;;;;;;8.50;3.83;;;;;;;20.14;42.90;93223.19;5041828;28;20063;-89
2023/06/13 01:22:15;;;;;;;5.63;3.53;;;;;;;20.13;42.72;93219.72;5041527;28;20040;-89
2023/06/13 01:24:54;;;;;;;7.38;3.58;;;;;;;20.13;42.66;93222.47;5049046;28;20036;-89
2023/06/13 01:27:21;;;;;;;6.35;3.30;;;;;;;20.13;42.48;93221.75;5045488;28;20037;-90
2023/06/13 01:29:46;;;;;;;6.38;4.22;;;;;;;20.15;42.52;93216.44;5012185;28;20534;-89
2023/06/13 01:32:11;;;;;;;6.13;3.45;;;;;;;20.13;42.69;93208.00;5045242;28;20067;-90
2023/06/13 01:34:37;;;;;;;5.68;3.50;;;;;;;20.14;42.47;93204.72;5032301;28;20495;-88
2023/06/13 01:37:02;;;;;;;5.72;3.60;;;;;;;20.12;42.61;93207.28;5021590;28;20037;-90
2023/06/13 01:39:28;;;;;;;6.38;3.50;;;;;;;20.11;42.55;93208.53;5025366;28;20045;-90
2023/06/13 01:41:53;;;;;;;4.72;3.38;;;;;;;20.11;42.48;93199.56;5026426;28;20403;-90
2023/06/13 01:44:19;;;;;;;6.70;3.45;;;;;;;20.10;42.61;93196.09;5008246;28;20076;-90
2023/06/13 01:47:07;;;;;;;5.15;3.22;;;;;;;20.10;42.55;93198.81;5041698;28;20398;-90
2023/06/13 01:49:43;;;;;;;6.32;3.22;;;;;;;20.10;42.59;93195.34;5041994;28;20034;-89
2023/06/13 01:52:32;;;;;;;6.70;3.67;;;;;;;20.09;42.80;93189.13;5008290;28;20034;-89
2023/06/13 01:55:02;;;;;;;5.05;3.72;;;;;;;20.10;42.53;93189.84;5040717;28;20128;-90
2023/06/13 01:57:31;;;;;;;5.57;3.25;;;;;;;20.09;42.43;93183.63;5008572;28;20480;-89
2023/06/13 01:59:56;;;;;;;6.35;3.17;;;;;;;20.10;42.43;93193.34;5057492;28;20087;-90
2023/06/13 02:02:22;;;;;;;5.68;2.88;;;;;;;20.09;42.31;93180.13;5042579;28;20037;-89
2023/06/13 02:04:49;;;;;;;5.03;3.03;;;;;;;20.10;42.21;93181.63;5029383;28;20046;-89
2023/06/13 02:07:14;;;;;;;5.57;3.00;;;;;;;20.09;42.24;93180.13;5030811;28;20040;-90
2023/06/13 02:09:39;;;;;;;5.05;3.13;;;;;;;20.10;42.39;93176.88;5041242;28;20049;-88
2023/06/13 02:12:06;;;;;;;8.98;3.45;;;;;;;20.08;42.28;93171.16;5048637;28;20048;-89
2023/06/13 02:14:32;;;;;;;4.07;3.22;;;;;;;20.07;42.18;93169.69;5012752;28;20064;-90
2023/06/13 02:16:59;;;;;;;5.25;3.40;;;;;;;20.06;42.39;93165.47;5034920;28;20205;-89
2023/06/13 02:19:25;;;;;;;4.55;3.42;;;;;;;20.08;42.36;93170.44;5018228;28;20113;-89
2023/06/13 02:21:50;;;;;;;4.05;3.00;;;;;;;20.10;42.42;93178.88;5017042;28;20404;-88
2023/06/13 02:24:16;;;;;;;5.18;3.75;;;;;;;20.06;42.25;93168.22;5001130;28;20038;-90
2023/06/13 02:26:41;;;;;;;4.10;2.70;;;;;;;20.09;42.28;93169.16;5011894;28;20029;-88
2023/06/13 02:29:07;;;;;;;4.03;2.88;;;;;;;20.06;42.38;93168.22;5028429;28;20064;-90
2023/06/13 02:31:35;;;;;;;4.63;3.00;;;;;;;20.05;42.42;93166.72;4995991;28;20482;-88
2023/06/13 02:34:01;;;;;;;4.43;2.75;;;;;;;20.07;42.58;93155.97;5028288;28;20064;-89
2023/06/13 02:36:27;;;;;;;6.20;3.00;;;;;;;20.05;42.44;93166.00;4995618;28;20484;-89
2023/06/13 02:38:53;;;;;;;5.95;3.20;;;;;;;20.04;42.52;93161.78;5012485;28;20111;-90
2023/06/13 02:41:18;;;;;;;5.57;3.00;;;;;;;20.05;42.18;93164.00;5011478;28;20306;-89
2023/06/13 02:43:44;;;;;;;4.85;3.47;;;;;;;20.04;42.70;93165.25;5012510;28;20050;-89
2023/06/13 02:46:10;;;;;;;6.05;2.95;;;;;;;20.05;42.45;93155.03;5010210;28;20488;-89
2023/06/13 02:48:36;;;;;;;4.70;2.83;;;;;;;20.04;42.56;93165.25;5028068;28;20057;-89
2023/06/13 02:51:02;;;;;;;3.38;2.35;;;;;;;20.07;42.11;93160.72;4995560;28;20410;-90
2023/06/13 02:53:27;;;;;;;5.10;2.97;;;;;;;20.04;42.67;93159.03;5011786;28;20411;-90
2023/06/13 02:55:54;;;;;;;4.65;3.15;;;;;;;20.05;42.50;93153.00;5012123;28;20515;-90
2023/06/13 02:58:20;;;;;;;4.57;3.30;;;;;;;20.04;42.23;93153.53;5007671;28;20034;-90
2023/06/13 03:00:47;;;;;;;4.72;3.20;;;;;;;20.02;42.53;93151.31;4993798;28;20553;-90
2023/06/13 03:03:16;;;;;;;4.65;3.55;;;;;;;20.03;42.40;93152.06;4989086;28;20511;-90
2023/06/13 03:05:44;;;;;;;5.30;3.03;;;;;;;20.01;42.66;93152.59;4996516;28;20428;-90
2023/06/13 03:08:10;;;;;;;4.82;2.83;;;;;;;20.02;42.50;93145.09;4995335;28;20033;-89
2023/06/13 03:10:35;;;;;;;5.43;3.15;;;;;;;20.02;42.51;93145.84;5010969;28;20065;-89
2023/06/13 03:13:01;;;;;;;5.40;2.95;;;;;;;20.03;42.34;93152.06;5011275;28;20041;-90
2023/06/13 03:15:27;;;;;;;5.95;2.97;;;;;;;20.01;42.38;93140.88;5010935;28;20526;-89
2023/06/13 03:17:52;;;;;;;4.10;2.58;;;;;;;20.01;42.67;93140.88;4995623;28;20065;-89
2023/06/13 03:20:20;;;;;;;5.75;3.00;;;;;;;20.04;42.51;93145.31;4995985;28;20404;-90
2023/06/13 03:22:46;;;;;;;4.13;2.90;;;;;;;20.05;42.46;93144.78;5037542;28;20046;-89
2023/06/13 03:25:11;;;;;;;6.20;2.92;;;;;;;20.05;42.46;93141.28;4993346;28;20045;-90
2023/06/13 03:27:37;;;;;;;7.82;3.05;;;;;;;20.08;42.48;93132.00;4997536;28;20042;-91
2023/06/13 03:30:04;;;;;;;14.38;6.90;;;;;;;20.09;42.29;93136.22;5013259;28;20061;-88
2023/06/13 03:32:29;;;;;;;34.28;28.65;;;;;;;20.14;42.57;93138.13;4994790;28;20450;-91
2023/06/13 03:34:55;;;;;;;28.95;17.60;;;;;;;20.14;42.15;93138.84;5010557;28;20046;-92
2023/06/13 03:37:20;;;;;;;75.68;49.22;;;;;;;20.18;42.36;93135.78;4977605;28;20052;-89
2023/06/13 03:39:47;;;;;;;7.63;4.70;;;;;;;20.17;42.56;93135.06;5014591;28;20040;-92
2023/06/13 03:42:13;;;;;;;28.05;19.90;;;;;;;20.32;42.48;93133.78;4994450;28;20137;-91
2023/06/13 03:44:38;;;;;;;82.60;44.40;;;;;;;20.24;42.46;93138.44;5012556;28;20045;-90
2023/06/13 03:47:05;;;;;;;35.20;27.30;;;;;;;20.24;42.78;93135.69;5005340;28;20048;-90
2023/06/13 03:49:30;;;;;;;30.30;14.90;;;;;;;20.20;42.67;93139.50;5006750;28;20056;-90
2023/06/13 03:51:56;;;;;;;26.63;8.73;;;;;;;20.17;40.35;93143.28;5022568;28;20045;-93
2023/06/13 03:54:21;;;;;;;11.32;6.43;;;;;;;20.04;39.52;93146.03;5028248;28;20038;-91
2023/06/13 03:56:47;;;;;;;30.35;6.75;;;;;;;19.92;38.71;93141.31;4990823;28;20052;-90
2023/06/13 03:59:13;;;;;;;66.07;12.35;;;;;;;19.82;38.15;93149.19;5006324;28;20372;-91
2023/06/13 04:01:41;;;;;;;51.15;11.55;;;;;;;19.80;37.92;93143.50;5011387;28;20033;-90
2023/06/13 04:04:07;;;;;;;63.20;11.80;;;;;;;19.67;37.60;93148.97;5034223;28;20067;-89
2023/06/13 04:06:32;;;;;;;107.43;38.33;;;;;;;19.66;37.57;93148.25;5020566;28;20037;-89
2023/06/13 04:08:58;;;;;;;89.82;21.20;;;;;;;19.61;37.28;93145.59;5001441;28;20052;-89
2023/06/13 04:11:24;;;;;;;64.43;12.95;;;;;;;19.62;37.13;93142.31;5006333;28;20029;-89
2023/06/13 04:13:49;;;;;;;44.53;11.40;;;;;;;19.64;36.83;93139.81;5013534;28;20046;-89
2023/06/13 04:16:16;;;;;;;44.83;11.02;;;;;;;19.63;36.80;93145.81;5002791;28;20041;-90
2023/06/13 04:18:43;;;;;;;57.10;13.85;;;;;;;19.62;36.74;93145.06;5039197;28;20499;-90
2023/06/13 04:21:08;;;;;;;55.92;14.90;;;;;;;19.66;36.57;93137.28;5039172;28;20052;-89
2023/06/13 04:23:34;;;;;;;33.20;9.25;;;;;;;19.36;36.83;93150.47;5002900;28;20455;-89
2023/06/13 04:26:02;;;;;;;20.67;8.02;;;;;;;19.28;36.89;93144.84;5023687;28;20045;-91
2023/06/13 04:28:29;;;;;;;30.48;8.52;;;;;;;19.06;37.04;93151.41;4995723;28;20046;-89
2023/06/13 04:30:56;;;;;;;38.95;10.93;;;;;;;18.91;37.50;93147.66;5009246;28;20124;-90
2023/06/13 04:33:23;;;;;;;58.95;24.38;;;;;;;18.95;37.47;93145.38;5002173;28;20041;-89
2023/06/13 04:35:49;;;;;;;58.60;18.88;;;;;;;18.97;37.81;93148.34;5004562;28;20045;-89
2023/06/13 04:38:20;;;;;;;120.15;29.15;;;;;;;18.94;37.63;93143.88;5007170;28;20124;-90
2023/06/13 04:40:45;;;;;;;;;;;;;;;18.87;37.69;93152.69;5007761;28;20041;-89
2023/06/13 04:43:14;;;;;;;82.40;28.52;;;;;;;19.03;37.69;93159.94;5003228;28;19930;-89
2023/06/13 04:45:41;;;;;;;118.97;46.95;;;;;;;19.01;37.74;93163.22;5012100;28;20474;-91
2023/06/13 04:48:09;;;;;;;131.48;56.85;;;;;;;18.99;37.84;93163.00;5041428;28;20056;-90
2023/06/13 04:50:37;;;;;;;130.57;53.72;;;;;;;19.04;37.86;93173.13;5012457;28;20054;-91
2023/06/13 04:53:05;;;;;;;104.97;49.40;;;;;;;19.13;37.95;93161.78;5007139;28;20045;-89
2023/06/13 04:55:32;;;;;;;97.10;43.22;;;;;;;19.14;37.72;93168.72;4993043;28;20111;-89
2023/06/13 04:57:58;;;;;;;124.38;41.47;;;;;;;19.15;37.75;93172.94;5004008;28;20041;-88
2023/06/13 05:00:24;;;;;;;78.25;30.20;;;;;;;19.05;38.21;93165.66;5020156;28;20495;-88
2023/06/13 05:02:50;;;;;;;48.28;26.20;;;;;;;19.07;38.31;93166.59;5025576;28;20084;-88
2023/06/13 05:05:16;;;;;;;83.97;33.17;;;;;;;19.13;38.09;93164.50;5007695;28;20049;-89
2023/06/13 05:07:42;;;;;;;106.78;39.65;;;;;;;19.10;38.01;93164.81;4999355;28;20042;-86
2023/06/13 05:10:08;;;;;;;94.50;40.42;;;;;;;19.12;38.55;93167.78;5004750;28;20061;-87
2023/06/13 05:12:35;;;;;;;95.40;40.47;;;;;;;19.05;38.47;93165.66;5011589;28;20591;-91
2023/06/13 05:15:01;;;;;;;82.28;37.58;;;;;;;18.99;38.70;93151.28;4989564;28;20057;-90
2023/06/13 05:17:29;;;;;;;95.13;36.00;;;;;;;19.04;38.79;93166.91;5023408;28;20041;-90
2023/06/13 05:19:55;;;;;;;77.60;29.52;;;;;;;19.02;38.65;93158.47;5004872;28;20049;-91
2023/06/13 05:22:20;;;;;;;45.50;18.42;;;;;;;18.97;38.18;93165.50;4996811;28;20046;-91
2023/06/13 05:24:47;;;;;;;50.92;20.92;;;;;;;18.87;38.81;93158.19;4971468;28;20049;-91
2023/06/13 05:27:24;;;;;;;49.83;19.52;;;;;;;18.82;39.03;93157.03;4980016;28;20566;-88
2023/06/13 05:29:50;;;;;;;43.53;17.90;;;;;;;18.88;38.77;93146.72;4996157;28;20045;-89
2023/06/13 05:32:15;;;;;;;43.97;14.25;;;;;;;18.95;38.77;93146.13;5023641;28;20056;-89
2023/06/13 05:34:41;;;;;;;32.63;14.07;;;;;;;18.98;38.62;93147.81;5005398;28;20061;-89
2023/06/13 05:37:10;;;;;;;32.80;14.82;;;;;;;18.93;38.96;93148.63;4989611;28;20103;-90
2023/06/13 05:39:36;;;;;;;37.58;16.95;;;;;;;18.88;38.79;93154.91;4990189;28;20053;-90
2023/06/13 05:42:02;;;;;;;35.85;20.00;;;;;;;18.76;39.06;93151.63;4998430;28;20053;-87
2023/06/13 05:44:27;;;;;;;40.13;21.13;;;;;;;18.87;38.62;93149.97;4992163;28;20041;-90
2023/06/13 05:46:52;;;;;;;36.08;20.70;;;;;;;18.82;38.76;93149.53;4987451;28;20052;-88
2023/06/13 05:49:18;;;;;;;42.75;19.98;;;;;;;18.81;38.68;93150.06;5038690;28;20364;-90
2023/06/13 05:51:43;;;;;;;46.45;24.95;;;;;;;18.79;38.62;93152.56;5029720;28;20064;-91
2023/06/13 05:54:09;;;;;;;51.13;28.27;;;;;;;18.77;38.71;93147.63;5001750;28;20342;-87
2023/06/13 05:56:36;;;;;;;54.80;24.75;;;;;;;18.79;38.81;93155.31;5026101;28;20046;-89
2023/06/13 05:59:01;;;;;;;46.30;23.15;;;;;;;18.66;38.85;93160.72;5007119;28;20034;-89
2023/06/13 06:01:29;;;;;;;47.78;23.00;;;;;;;18.66;38.94;93163.44;4993769;28;20081;-91
2023/06/13 06:03:54;;;;;;;43.63;21.75;;;;;;;18.69;39.66;93165.88;5006289;28;20092;-88
2023/06/13 06:06:20;;;;;;;38.33;18.73;;;;;;;18.78;38.96;93167.53;5007312;28;20033;-87
2023/06/13 06:08:51;;;;;;;46.53;23.38;;;;;;;18.74;38.78;93167.81;5027072;28;20052;-90
2023/06/13 06:11:17;;;;;;;42.40;21.63;;;;;;;18.88;38.83;93160.41;5022907;28;20038;-88
2023/06/13 06:13:42;;;;;;;34.40;17.30;;;;;;;18.88;38.55;93162.41;5005373;28;20135;-88
2023/06/13 06:16:07;;;;;;;32.50;14.45;;;;;;;18.93;38.77;93156.09;5020466;28;20423;-88
2023/06/13 06:18:33;;;;;;;30.60;14.60;;;;;;;18.92;38.77;93155.38;5062345;28;20033;-89
2023/06/13 06:21:00;;;;;;;19.30;11.05;;;;;;;18.93;38.33;93159.59;5036105;28;20030;-89
2023/06/13 06:23:25;;;;;;;18.08;11.00;;;;;;;18.99;38.69;93156.78;5019641;28;20042;-90
2023/06/13 06:25:51;;;;;;;19.02;10.43;;;;;;;18.94;38.57;93161.06;5004789;28;20041;-89
2023/06/13 06:28:17;;;;;;;22.27;13.95;;;;;;;18.90;38.44;93152.41;5041076;28;20077;-89
2023/06/13 06:30:42;;;;;;;18.42;9.50;;;;;;;18.95;38.37;93159.06;5025980;28;20036;-88
2023/06/13 06:33:07;;;;;;;21.25;10.38;;;;;;;19.02;38.20;93153.00;5044957;28;20067;-88
2023/06/13 06:35:35;;;;;;;22.58;9.85;;;;;;;19.03;38.44;93152.47;5004332;28;20057;-89
2023/06/13 06:38:00;;;;;;;15.10;9.60;;;;;;;18.96;37.90;93149.59;5006617;28;20091;-89
2023/06/13 06:40:25;;;;;;;69.85;19.08;;;;;;;18.99;38.25;93154.78;5061691;28;20044;-88
2023/06/13 06:42:51;;;;;;;50.95;15.27;;;;;;;19.02;38.10;93161.94;5031007;28;20395;-89
2023/06/13 06:45:16;;;;;;;46.25;14.93;;;;;;;18.99;37.89;93154.03;5029904;28;20071;-89
2023/06/13 06:47:43;;;;;;;56.28;20.08;;;;;;;18.97;37.91;93159.28;5030110;28;20041;-90
2023/06/13 06:50:08;;;;;;;40.60;20.35;;;;;;;18.94;37.85;93168.53;5023748;28;20493;-91
2023/06/13 06:52:34;;;;;;;36.13;17.90;;;;;;;18.98;37.85;93164.25;5028035;28;20026;-89
2023/06/13 06:54:59;;;;;;;42.55;18.63;;;;;;;18.96;38.04;93166.03;5068727;28;20576;-89
2023/06/13 06:57:25;;;;;;;46.75;20.60;;;;;;;19.05;37.84;93169.09;5029137;28;20099;-92
2023/06/13 06:59:52;;;;;;;66.57;26.40;;;;;;;19.10;38.03;93159.34;5032048;28;20037;-89
2023/06/13 07:02:17;;;;;;;69.18;31.92;;;;;;;19.14;38.09;93168.72;5030969;28;20028;-90
2023/06/13 07:04:43;;;;;;;109.03;43.63;;;;;;;19.05;37.86;93169.09;5019522;28;20045;-89
2023/06/13 07:07:08;;;;;;;106.45;48.33;;;;;;;19.15;38.20;93164.72;5047269;28;20046;-90
2023/06/13 07:09:34;;;;;;;106.85;51.65;;;;;;;19.07;38.11;93169.31;5018755;28;20099;-90
2023/06/13 07:11:59;;;;;;;117.63;57.80;;;;;;;19.13;38.09;93164.50;5037960;28;20506;-91
2023/06/13 07:14:25;;;;;;;134.75;62.15;;;;;;;19.16;37.83;93170.94;5034204;28;20044;-91
2023/06/13 07:16:54;;;;;;;111.85;52.55;;;;;;;19.14;37.94;93162.50;5009786;28;20044;-91
2023/06/13 07:19:20;;;;;;;89.63;46.38;;;;;;;19.16;38.20;93149.03;5052116;28;20045;-91
2023/06/13 07:21:45;;;;;;;94.55;42.72;;;;;;;19.06;37.96;93169.84;5046147;28;20113;-90
2023/06/13 07:24:11;;;;;;;86.88;37.40;;;;;;;19.14;38.09;93163.25;5066089;28;20044;-91
2023/06/13 07:26:37;;;;;;;70.00;30.52;;;;;;;19.06;38.07;93167.09;5028222;28;20044;-91
2023/06/13 07:29:02;;;;;;;76.53;33.45;;;;;;;19.17;38.20;93158.72;5037783;28;20045;-91
2023/06/13 07:31:29;;;;;;;77.43;34.65;;;;;;;19.09;38.24;93164.06;5037678;28;20056;-91
2023/06/13 07:33:55;;;;;;;68.18;28.80;;;;;;;19.17;38.13;93158.72;5034260;28;20477;-89
2023/06/13 07:36:21;;;;;;;58.95;26.70;;;;;;;19.16;37.97;93158.00;5031164;28;20037;-88
2023/06/13 07:38:46;;;;;;;65.15;22.77;;;;;;;19.18;37.67;93152.00;5042675;28;20103;-91
2023/06/13 07:41:12;;;;;;;56.75;24.33;;;;;;;19.16;37.87;93152.50;5064108;28;20474;-90
2023/06/13 07:43:38;;;;;;;64.68;25.80;;;;;;;19.15;37.36;93153.78;5029505;28;20052;-90
2023/06/13 07:46:06;;;;;;;54.88;23.17;;;;;;;19.16;36.75;93149.03;5031034;28;20037;-91
2023/06/13 07:48:34;;;;;;;43.85;20.30;;;;;;;19.05;36.62;93146.47;5062838;28;20270;-91
2023/06/13 07:51:00;;;;;;;45.80;16.15;;;;;;;19.07;36.10;93143.94;5028372;28;20049;-91
2023/06/13 07:53:25;;;;;;;39.70;14.77;;;;;;;19.05;35.72;93149.22;5022189;28;20398;-91
2023/06/13 07:55:53;;;;;;;29.83;11.60;;;;;;;18.96;35.28;93141.38;5009839;28;20328;-91
2023/06/13 07:58:18;;;;;;;28.13;11.43;;;;;;;19.08;35.31;93148.88;5004496;28;20033;-92
2023/06/13 08:00:46;;;;;;;32.80;15.15;;;;;;;19.10;35.29;93134.66;5013637;28;20460;-91
2023/06/13 08:03:12;;;;;;;54.83;22.50;;;;;;;19.10;34.90;93134.66;5013344;28;20051;-89
2023/06/13 08:05:38;;;;;;;52.72;20.45;;;;;;;19.07;34.94;93128.22;5038640;28;20049;-90
2023/06/13 08:08:05;;;;;;;52.03;18.20;;;;;;;19.08;34.93;93135.19;5047656;28;20476;-91
2023/06/13 08:10:43;;;;;;;49.25;16.30;;;;;;;19.04;35.20;93129.31;5044862;28;20049;-92
2023/06/13 08:13:10;;;;;;;35.08;14.90;;;;;;;19.12;34.54;93137.63;5046718;28;20048;-89
2023/06/13 08:15:35;;;;;;;30.67;13.50;;;;;;;19.04;34.62;93131.31;5040277;28;20119;-92
2023/06/13 08:18:01;;;;;;;69.93;32.40;;;;;;;19.02;34.78;93131.81;5035155;28;20494;-91
2023/06/13 08:20:30;;;;;;;66.93;31.13;;;;;;;19.05;34.82;93130.03;5051255;28;20041;-91
2023/06/13 08:22:56;;;;;;;62.25;26.35;;;;;;;19.07;34.95;93124.75;5010768;28;20108;-91
2023/06/13 08:25:23;;;;;;;55.10;20.10;;;;;;;19.09;35.03;93131.19;5038440;28;20033;-92
2023/06/13 08:27:52;;;;;;;53.85;25.70;;;;;;;19.07;34.72;93130.22;5031364;28;20079;-91
2023/06/13 08:30:17;;;;;;;46.00;22.65;;;;;;;19.06;34.29;93121.28;5000080;28;20041;-91
2023/06/13 08:32:46;;;;;;;42.72;21.02;;;;;;;19.01;34.59;93119.38;5015423;28;20052;-91
2023/06/13 08:35:12;;;;;;;46.42;21.42;;;;;;;19.04;34.44;93115.59;5016545;28;20033;-90
2023/06/13 08:37:38;;;;;;;56.78;26.48;;;;;;;19.04;35.18;93123.09;5033255;28;20098;-90
2023/06/13 08:40:07;;;;;;;49.25;24.67;;;;;;;19.10;34.92;93116.22;5007377;28;20045;-89
2023/06/13 08:42:34;;;;;;;52.90;24.10;;;;;;;19.05;35.25;93119.78;5032790;28;20033;-90
2023/06/13 08:45:00;;;;;;;67.60;27.20;;;;;;;19.09;35.36;93122.97;5015474;28;20048;-90
2023/06/13 08:47:34;;;;;;;54.25;22.83;;;;;;;19.09;35.93;93119.50;5011812;28;20044;-89
2023/06/13 08:50:00;;;;;;;71.03;22.67;;;;;;;19.11;35.67;93128.66;5068828;28;20037;-88
2023/06/13 08:52:25;;;;;;;49.90;22.10;;;;;;;19.11;35.59;93122.44;5036983;28;20048;-89
2023/06/13 08:54:53;;;;;;;57.38;23.58;;;;;;;19.07;35.77;93120.00;5009357;28;20037;-91
2023/06/13 08:57:18;;;;;;;47.30;25.95;;;;;;;19.10;35.60;93132.66;5044535;28;20041;-90
2023/06/13 08:59:45;;;;;;;55.60;25.90;;;;;;;19.11;35.66;93134.16;5026644;28;20033;-90
2023/06/13 09:02:14;;;;;;;60.78;29.48;;;;;;;19.17;36.10;93140.28;5029288;28;20043;-90
2023/06/13 09:04:40;;;;;;;50.17;23.85;;;;;;;19.13;36.20;93128.91;5005267;28;20045;-89
2023/06/13 09:07:05;;;;;;;54.40;26.42;;;;;;;19.16;35.85;93124.38;5029229;28;20047;-92
2023/06/13 09:09:31;;;;;;;46.95;23.95;;;;;;;19.20;35.69;93132.28;5012672;28;20068;-91
2023/06/13 09:11:57;;;;;;;47.65;21.00;;;;;;;19.20;36.21;93132.28;5012427;28;20396;-92
2023/06/13 09:14:22;;;;;;;55.03;19.95;;;;;;;19.25;35.48;93132.22;5032233;28;20048;-87
2023/06/13 09:16:51;;;;;;;31.50;15.43;;;;;;;19.23;35.76;93134.72;5042289;28;20115;-90
2023/06/13 09:19:17;;;;;;;34.70;16.77;;;;;;;19.15;35.89;93128.38;5020172;28;20029;-90
2023/06/13 09:21:43;;;;;;;39.03;18.65;;;;;;;19.20;36.16;93140.50;5035915;28;20041;-90
2023/06/13 09:24:12;;;;;;;36.28;19.27;;;;;;;19.22;36.01;93130.50;5046759;28;20041;-92
2023/06/13 09:26:38;;;;;;;92.18;46.28;;;;;;;19.24;36.11;93117.03;5019601;28;20048;-89
2023/06/13 09:29:06;;;;;;;88.90;32.38;;;;;;;19.23;35.77;93117.53;5031104;28;20041;-88
2023/06/13 09:31:37;;;;;;;82.03;37.67;;;;;;;19.28;35.88;93108.47;5031408;28;20033;-91
2023/06/13 09:34:03;;;;;;;61.08;29.73;;;;;;;19.34;35.62;93117.34;5016368;28;20049;-90
2023/06/13 09:36:28;;;;;;;71.03;37.90;;;;;;;19.28;35.86;93122.91;5067311;28;20071;-90
2023/06/13 09:38:54;;;;;;;99.57;46.75;;;;;;;19.34;35.79;93118.09;5066316;28;20038;-90
2023/06/13 09:41:21;;;;;;;121.32;55.05;;;;;;;19.35;35.58;93127.78;5025760;28;20036;-88
2023/06/13 09:43:47;;;;;;;156.57;80.03;;;;;;;19.36;36.13;93101.88;5051026;28;20049;-90
2023/06/13 09:46:13;;;;;;;121.45;58.80;;;;;;;19.24;36.66;93122.50;5035913;28;20036;-91
2023/06/13 09:48:41;;;;;;;105.65;50.63;;;;;;;19.30;36.66;93109.44;5023583;28;20116;-89
2023/06/13 09:51:10;;;;;;;88.60;40.88;;;;;;;19.39;36.28;93103.56;5032022;28;20535;-88
2023/06/13 09:53:36;;;;;;;82.40;32.30;;;;;;;19.35;36.09;93108.59;5029047;28;20041;-87
2023/06/13 09:56:01;;;;;;;61.83;25.35;;;;;;;19.41;36.51;93112.00;5065882;28;20056;-88
2023/06/13 09:58:28;;;;;;;36.38;19.05;;;;;;;19.32;36.91;93115.13;5064458;28;20045;-87
2023/06/13 10:01:00;;;;;;;38.83;16.05;;;;;;;19.35;37.48;93107.88;5046116;28;20037;-88
2023/06/13 10:03:27;;;;;;;74.40;45.10;;;;;;;19.36;37.81;93098.38;5022166;28;20042;-89
2023/06/13 10:05:53;;;;;;;76.82;47.25;;;;;;;19.40;37.78;93096.81;5021343;28;20038;-88
2023/06/13 10:08:19;;;;;;;33.67;19.50;;;;;;;19.37;37.94;93097.13;5021807;28;20041;-89
2023/06/13 10:10:45;;;;;;;26.05;12.80;;;;;;;19.39;38.16;93111.78;5011696;28;20083;-90
2023/06/13 10:13:14;;;;;;;31.98;13.90;;;;;;;19.44;38.06;93102.00;5043465;28;20598;-89
2023/06/13 10:15:43;;;;;;;49.72;11.95;;;;;;;19.35;37.80;93094.91;5009074;28;20144;-89
2023/06/13 10:18:14;;;;;;;16.80;8.93;;;;;;;19.42;37.87;93091.56;5024417;28;20423;-89
2023/06/13 10:20:39;;;;;;;22.63;8.20;;;;;;;19.44;37.81;93093.78;4992188;28;20041;-89
2023/06/13 10:23:06;;;;;;;18.20;6.47;;;;;;;19.41;37.90;93094.81;5005145;28;20428;-89
2023/06/13 10:25:31;;;;;;;15.90;6.10;;;;;;;19.41;37.52;93090.06;4991305;28;20076;-89
2023/06/13 10:28:00;;;;;;;8.32;4.60;;;;;;;19.45;37.67;93092.50;4984580;28;20045;-88
2023/06/13 10:30:40;;;;;;;36.53;9.98;;;;;;;19.42;37.78;93088.81;5029046;28;20037;-90
2023/06/13 10:33:28;;;;;;;48.42;13.65;;;;;;;19.47;37.61;93085.25;5028608;28;20037;-90
2023/06/13 10:36:18;;;;;;;78.85;23.98;;;;;;;19.47;37.69;93085.25;5028575;28;20623;-89
2023/06/13 10:39:14;;;;;;;62.45;18.15;;;;;;;19.51;37.96;93079.44;5022076;28;20037;-90
2023/06/13 10:41:39;;;;;;;41.85;14.10;;;;;;;19.53;38.04;93085.16;5035267;28;20044;-89
2023/06/13 10:44:15;;;;;;;27.58;10.00;;;;;;;19.58;38.03;93076.09;5048617;28;20055;-90
2023/06/13 10:46:40;;;;;;;20.55;8.20;;;;;;;19.57;37.97;93068.38;5017054;28;20179;-91
2023/06/13 10:49:15;;;;;;;24.05;8.20;;;;;;;19.56;37.76;93062.16;5019277;28;20562;-90
2023/06/13 10:51:41;;;;;;;31.30;15.10;;;;;;;19.59;38.01;93065.84;4994653;28;20038;-90
2023/06/13 10:54:11;;;;;;;34.80;18.73;;;;;;;19.59;37.41;93066.59;5017172;28;20084;-90
2023/06/13 10:56:41;;;;;;;38.08;20.30;;;;;;;19.59;37.82;93074.81;5048297;28;20055;-91
2023/06/13 10:59:13;;;;;;;46.60;19.15;;;;;;;19.55;37.59;93068.16;5032404;28;20394;-89
2023/06/13 11:01:39;;;;;;;49.95;22.58;;;;;;;19.54;37.79;93074.91;4992634;28;20045;-88
2023/06/13 11:04:10;;;;;;;59.72;25.30;;;;;;;19.56;37.82;93075.13;5046429;28;20045;-90
2023/06/13 11:06:40;;;;;;;54.15;23.27;;;;;;;19.56;37.38;93073.13;5051593;28;20033;-91
2023/06/13 11:09:18;;;;;;;47.35;20.88;;;;;;;19.44;37.80;93058.88;5033760;28;20041;-91
2023/06/13 11:11:52;;;;;;;69.10;32.00;;;;;;;19.47;37.76;93068.06;5035238;28;20055;-90
2023/06/13 11:14:38;;;;;;;90.38;51.25;;;;;;;19.54;37.60;93067.44;5019851;28;20064;-92
2023/06/13 11:17:03;;;;;;;95.18;56.63;;;;;;;19.54;37.57;93072.19;5050875;28;20045;-90
2023/06/13 11:19:30;;;;;;;95.95;53.72;;;;;;;19.56;37.45;93064.91;5023524;28;20041;-90
2023/06/13 11:22:01;;;;;;;87.65;48.85;;;;;;;19.60;38.02;93059.84;5041875;28;20059;-87